Time;durP1;ratioP1;P1;durP2;ratioP2;P2;SDS_P1;SDS_P2;PMS_P1;PMS_P2;Temp;Humidity;BMP_temperature;BMP_pressure;BME280_temperature;BME280_humidity;BME280_pressure;Samples;Min_cycle;Max_cycle;Signal;HPM_P1;HPM_P2
2021/08/06 00:02:16;;;;;;;;;0.00;0.00;;;;;;;;5038494;28;47898;-82
2021/08/06 00:04:42;;;;;;;;;0.00;0.00;;;;;;;;5037118;28;47144;-81
2021/08/06 00:07:07;;;;;;;;;0.00;0.00;;;;;;;;5037316;28;46909;-81
2021/08/06 00:09:35;;;;;;;;;0.00;0.00;;;;;;;;5038803;28;46967;-81
2021/08/06 00:12:01;;;;;;;;;0.00;0.00;;;;;;;;5037971;28;47679;-81
2021/08/06 00:14:26;;;;;;;;;0.00;0.00;;;;;;;;5038195;28;46861;-81
2021/08/06 00:16:51;;;;;;;;;0.00;0.00;;;;;;;;5038291;28;46869;-81
2021/08/06 00:19:17;;;;;;;;;0.00;0.00;;;;;;;;5020427;28;47238;-81
2021/08/06 00:21:42;;;;;;;;;66.67;55.67;;;;;;;;5037821;28;47121;-81
2021/08/06 00:24:07;;;;;;;;;66.25;55.00;;;;;;;;5036615;28;47880;-81
2021/08/06 00:26:33;;;;;;;;;60.50;49.75;;;;;;;;5037922;28;46961;-81
2021/08/06 00:28:58;;;;;;;;;51.25;43.00;;;;;;;;5038001;28;46818;-81
2021/08/06 00:31:23;;;;;;;;;46.33;38.67;;;;;;;;5036396;28;48148;-81
2021/08/06 00:33:48;;;;;;;;;43.00;37.50;;;;;;;;5032209;28;46826;-81
2021/08/06 00:36:14;;;;;;;;;45.00;37.50;;;;;;;;5038166;28;46800;-81
2021/08/06 00:38:39;;;;;;;;;42.75;37.25;;;;;;;;5037998;28;46873;-81
2021/08/06 00:41:04;;;;;;;;;43.00;37.25;;;;;;;;5019887;28;48578;-80
2021/08/06 00:43:30;;;;;;;;;43.33;38.00;;;;;;;;5037406;28;47001;-82
2021/08/06 00:45:56;;;;;;;;;50.00;42.00;;;;;;;;5019636;28;46891;-82
2021/08/06 00:48:21;;;;;;;;;49.00;48.00;;;;;;;;5019920;28;47155;-81
2021/08/06 00:50:47;;;;;;;;;43.50;37.50;;;;;;;;5037799;28;47834;-81
2021/08/06 00:53:12;;;;;;;;;40.25;35.00;;;;;;;;5036190;28;46852;-79
2021/08/06 00:55:38;;;;;;;;;44.25;36.75;;;;;;;;5037797;28;47354;-79
2021/08/06 00:58:03;;;;;;;;;28.67;26.00;;;;;;;;5037692;28;47400;-79
2021/08/06 01:00:29;;;;;;;;;44.75;39.25;;;;;;;;5037509;28;47999;-82
2021/08/06 01:03:12;;;;;;;;;38.00;34.00;;;;;;;;5037536;28;46905;-81
2021/08/06 01:05:41;;;;;;;;;43.00;35.60;;;;;;;;5037653;28;47124;-80
2021/08/06 01:08:09;;;;;;;;;37.00;34.00;;;;;;;;5037920;28;47067;-81
2021/08/06 01:10:45;;;;;;;;;37.00;33.00;;;;;;;;5037430;28;47904;-80
2021/08/06 01:13:13;;;;;;;;;38.50;33.25;;;;;;;;5037725;28;46867;-80
2021/08/06 01:15:38;;;;;;;;;50.25;43.00;;;;;;;;5037301;28;46922;-80
2021/08/06 01:18:06;;;;;;;;;54.00;45.50;;;;;;;;5036322;28;46991;-80
2021/08/06 01:20:34;;;;;;;;;46.00;38.00;;;;;;;;5017624;28;49531;-80
2021/08/06 01:23:03;;;;;;;;;40.25;35.00;;;;;;;;5008781;28;47416;-80
2021/08/06 01:25:43;;;;;;;;;60.00;49.25;;;;;;;;5040577;28;46993;-81
2021/08/06 01:28:08;;;;;;;;;64.25;52.25;;;;;;;;5022942;28;47015;-81
2021/08/06 01:30:34;;;;;;;;;52.25;44.50;;;;;;;;5040364;28;46922;-80
2021/08/06 01:32:59;;;;;;;;;69.75;60.25;;;;;;;;5038439;28;46810;-81
2021/08/06 01:35:24;;;;;;;;;71.75;63.75;;;;;;;;5038300;28;46829;-81
2021/08/06 01:37:50;;;;;;;;;75.75;72.00;;;;;;;;5040803;28;46773;-81
2021/08/06 01:40:15;;;;;;;;;51.00;42.33;;;;;;;;5040501;28;48049;-81
2021/08/06 01:42:40;;;;;;;;;42.75;37.25;;;;;;;;5040439;28;47004;-81
2021/08/06 01:45:08;;;;;;;;;56.00;46.50;;;;;;;;5040213;28;46921;-81
2021/08/06 01:47:33;;;;;;;;;51.00;44.00;;;;;;;;5040850;28;47001;-81
2021/08/06 01:50:01;;;;;;;;;72.25;66.00;;;;;;;;5040207;28;47077;-81
2021/08/06 01:52:38;;;;;;;;;70.25;62.00;;;;;;;;5040329;28;48066;-81
2021/08/06 01:55:04;;;;;;;;;66.75;56.00;;;;;;;;5040179;28;47164;-81
2021/08/06 01:57:30;;;;;;;;;62.50;51.75;;;;;;;;5040414;28;46843;-81
2021/08/06 01:59:57;;;;;;;;;47.25;40.00;;;;;;;;5039824;28;47130;-81
2021/08/06 02:02:22;;;;;;;;;44.25;38.00;;;;;;;;5040272;28;47530;-81
2021/08/06 02:04:48;;;;;;;;;41.25;35.25;;;;;;;;5040284;28;46890;-81
2021/08/06 02:07:15;;;;;;;;;46.75;39.00;;;;;;;;5040512;28;47043;-81
2021/08/06 02:09:40;;;;;;;;;44.25;38.50;;;;;;;;5039931;28;47080;-81
2021/08/06 02:12:05;;;;;;;;;45.75;39.75;;;;;;;;5021963;28;46983;-81
2021/08/06 02:14:31;;;;;;;;;45.25;38.00;;;;;;;;5021881;28;47618;-80
2021/08/06 02:16:56;;;;;;;;;45.33;39.00;;;;;;;;5022108;28;47171;-80
2021/08/06 02:19:22;;;;;;;;;4.00;1.50;;;;;;;;5039870;28;47839;-79
2021/08/06 02:21:51;;;;;;;;;30.25;27.75;;;;;;;;5021922;28;46878;-80
2021/08/06 02:24:16;;;;;;;;;3.50;2.50;;;;;;;;5039956;28;46892;-80
2021/08/06 02:26:43;;;;;;;;;51.75;43.25;;;;;;;;5040082;28;47110;-81
2021/08/06 02:29:13;;;;;;;;;11.25;8.50;;;;;;;;5021671;28;47143;-81
2021/08/06 02:31:39;;;;;;;;;3.25;2.50;;;;;;;;5039665;28;46872;-81
2021/08/06 02:34:05;;;;;;;;;2.25;2.25;;;;;;;;5016864;28;46780;-81
2021/08/06 02:36:30;;;;;;;;;3.00;3.00;;;;;;;;5021981;28;46835;-81
2021/08/06 02:38:59;;;;;;;;;4.75;1.75;;;;;;;;5039520;28;46935;-81
2021/08/06 02:41:25;;;;;;;;;2.50;1.00;;;;;;;;5039635;28;47087;-80
2021/08/06 02:43:50;;;;;;;;;2.25;2.00;;;;;;;;5039534;28;46907;-80
2021/08/06 02:46:16;;;;;;;;;2.25;1.00;;;;;;;;5039579;28;47280;-80
2021/08/06 02:48:41;;;;;;;;;3.25;1.00;;;;;;;;5021531;28;47118;-80
2021/08/06 02:51:07;;;;;;;;;3.00;2.00;;;;;;;;5039828;28;46920;-80
2021/08/06 02:53:32;;;;;;;;;3.50;1.50;;;;;;;;5039481;28;46766;-80
2021/08/06 02:55:57;;;;;;;;;1.25;1.00;;;;;;;;5039722;28;46821;-81
2021/08/06 02:58:23;;;;;;;;;5.00;4.00;;;;;;;;5039268;28;47839;-80
2021/08/06 03:00:49;;;;;;;;;4.75;1.50;;;;;;;;5037824;28;47723;-80
2021/08/06 03:03:14;;;;;;;;;3.00;2.75;;;;;;;;5039452;28;46798;-80
2021/08/06 03:05:39;;;;;;;;;3.00;2.00;;;;;;;;5039546;28;46797;-90
2021/08/06 03:08:05;;;;;;;;;0.00;0.00;;;;;;;;5038071;28;48355;-84
2021/08/06 03:10:30;;;;;;;;;2.50;2.00;;;;;;;;5039434;28;46846;-79
2021/08/06 03:12:55;;;;;;;;;4.00;2.25;;;;;;;;5038894;28;46730;-79
2021/08/06 03:15:21;;;;;;;;;2.75;2.00;;;;;;;;5021246;28;46826;-80
2021/08/06 03:17:46;;;;;;;;;3.00;3.00;;;;;;;;5039207;28;47844;-79
2021/08/06 03:20:13;;;;;;;;;2.00;2.00;;;;;;;;5039229;28;47038;-79
2021/08/06 03:22:40;;;;;;;;;2.25;1.00;;;;;;;;5026076;28;47128;-80
2021/08/06 03:25:06;;;;;;;;;1.75;0.75;;;;;;;;5039283;28;46962;-79
2021/08/06 03:27:31;;;;;;;;;1.50;0.00;;;;;;;;5020844;28;48391;-79
2021/08/06 03:29:57;;;;;;;;;4.00;2.25;;;;;;;;5037427;28;47214;-79
2021/08/06 03:32:22;;;;;;;;;4.00;1.00;;;;;;;;5038914;28;47012;-79
2021/08/06 03:34:47;;;;;;;;;2.00;2.00;;;;;;;;5035092;28;47631;-79
2021/08/06 03:37:13;;;;;;;;;3.00;1.00;;;;;;;;5038597;28;47915;-80
2021/08/06 03:39:38;;;;;;;;;2.00;2.00;;;;;;;;5038789;28;46916;-80
2021/08/06 03:42:04;;;;;;;;;1.00;1.00;;;;;;;;5037319;28;46822;-79
2021/08/06 03:44:30;;;;;;;;;2.50;1.25;;;;;;;;5039073;28;46840;-79
2021/08/06 03:46:55;;;;;;;;;2.00;1.00;;;;;;;;5038107;28;48377;-79
2021/08/06 03:49:20;;;;;;;;;2.50;2.00;;;;;;;;5038906;28;46999;-81
2021/08/06 03:51:46;;;;;;;;;4.50;2.00;;;;;;;;5038505;28;47058;-79
2021/08/06 03:54:11;;;;;;;;;2.75;1.00;;;;;;;;5037447;28;47074;-79
2021/08/06 03:56:36;;;;;;;;;1.50;1.00;;;;;;;;5038430;28;46983;-80
2021/08/06 03:59:02;;;;;;;;;3.50;1.00;;;;;;;;5038390;28;46885;-80
2021/08/06 04:01:27;;;;;;;;;3.00;1.75;;;;;;;;5036817;28;47150;-79
2021/08/06 04:03:52;;;;;;;;;3.00;1.00;;;;;;;;5038715;28;47285;-79
2021/08/06 04:06:17;;;;;;;;;1.00;1.00;;;;;;;;5038433;28;46975;-79
2021/08/06 04:08:43;;;;;;;;;1.75;1.75;;;;;;;;5038369;28;47001;-80
2021/08/06 04:11:08;;;;;;;;;1.00;1.00;;;;;;;;5038244;28;46899;-80
2021/08/06 04:13:33;;;;;;;;;5.50;1.75;;;;;;;;5038696;28;46894;-79
2021/08/06 04:15:59;;;;;;;;;1.50;1.50;;;;;;;;5037920;28;47833;-79
2021/08/06 04:18:24;;;;;;;;;2.50;2.00;;;;;;;;5038450;28;47088;-80
2021/08/06 04:20:49;;;;;;;;;2.00;2.00;;;;;;;;5034149;28;46825;-80
2021/08/06 04:23:15;;;;;;;;;2.00;1.00;;;;;;;;5030505;28;46892;-80
2021/08/06 04:25:40;;;;;;;;;2.75;1.50;;;;;;;;5038049;28;47730;-79
2021/08/06 04:28:06;;;;;;;;;3.00;2.00;;;;;;;;5038323;28;47113;-79
2021/08/06 04:30:32;;;;;;;;;3.75;1.00;;;;;;;;5037962;28;46898;-79
2021/08/06 04:32:57;;;;;;;;;2.75;1.00;;;;;;;;5036636;28;46723;-79
2021/08/06 04:35:22;;;;;;;;;1.50;1.00;;;;;;;;5036318;28;46883;-80
2021/08/06 04:37:49;;;;;;;;;0.50;0.50;;;;;;;;5038102;28;46894;-79
2021/08/06 04:40:15;;;;;;;;;1.00;1.00;;;;;;;;5037925;28;47044;-79
2021/08/06 04:42:40;;;;;;;;;1.75;1.00;;;;;;;;5038206;28;47019;-79
2021/08/06 04:45:05;;;;;;;;;2.50;1.00;;;;;;;;5037626;28;47040;-79
2021/08/06 04:47:31;;;;;;;;;1.00;1.00;;;;;;;;5038074;28;46809;-80
2021/08/06 04:49:56;;;;;;;;;1.00;1.00;;;;;;;;5037940;28;47135;-79
2021/08/06 04:52:21;;;;;;;;;2.00;1.00;;;;;;;;5020176;28;47195;-79
2021/08/06 04:54:47;;;;;;;;;1.50;0.25;;;;;;;;5037810;28;47003;-78
2021/08/06 04:57:12;;;;;;;;;1.25;1.25;;;;;;;;5037580;28;47034;-79
2021/08/06 04:59:37;;;;;;;;;1.00;1.00;;;;;;;;5038346;28;47000;-79
2021/08/06 05:02:02;;;;;;;;;2.00;2.00;;;;;;;;5041570;28;47101;-78
2021/08/06 05:04:28;;;;;;;;;1.00;1.00;;;;;;;;5023149;28;47298;-79
2021/08/06 05:06:53;;;;;;;;;1.00;1.00;;;;;;;;5041432;28;47117;-79
2021/08/06 05:09:18;;;;;;;;;2.00;1.00;;;;;;;;5041163;28;46921;-79
2021/08/06 05:11:44;;;;;;;;;1.50;1.00;;;;;;;;5023180;28;47002;-79
2021/08/06 05:14:09;;;;;;;;;2.00;1.00;;;;;;;;5040872;28;47745;-79
2021/08/06 05:16:34;;;;;;;;;1.25;1.00;;;;;;;;5040883;28;47141;-79
2021/08/06 05:19:00;;;;;;;;;2.75;0.75;;;;;;;;5041029;28;46912;-79
2021/08/06 05:21:25;;;;;;;;;1.00;1.00;;;;;;;;5045287;28;47178;-80
2021/08/06 05:23:51;;;;;;;;;2.00;0.00;;;;;;;;5040888;28;47007;-79
2021/08/06 05:26:16;;;;;;;;;2.00;1.00;;;;;;;;5040918;28;46751;-79
2021/08/06 05:28:41;;;;;;;;;2.00;1.00;;;;;;;;5040737;28;47053;-79
2021/08/06 05:31:07;;;;;;;;;1.50;1.00;;;;;;;;5040927;28;47109;-80
2021/08/06 05:33:32;;;;;;;;;3.50;1.00;;;;;;;;5036400;28;47720;-79
2021/08/06 05:35:57;;;;;;;;;2.25;0.50;;;;;;;;5041082;28;46720;-79
2021/08/06 05:38:23;;;;;;;;;2.00;1.00;;;;;;;;5040711;28;48105;-79
2021/08/06 05:40:48;;;;;;;;;1.00;1.00;;;;;;;;5040933;28;47350;-80
2021/08/06 05:43:13;;;;;;;;;2.75;1.00;;;;;;;;5040237;28;46978;-80
2021/08/06 05:45:39;;;;;;;;;1.75;1.00;;;;;;;;5040355;28;46872;-80
2021/08/06 05:48:04;;;;;;;;;1.00;1.00;;;;;;;;5040508;28;46903;-79
2021/08/06 05:50:36;;;;;;;;;1.00;1.00;;;;;;;;5040871;28;47027;-79
2021/08/06 05:53:01;;;;;;;;;3.00;1.00;;;;;;;;5040471;28;47193;-79
2021/08/06 05:55:26;;;;;;;;;0.50;0.50;;;;;;;;5040391;28;47054;-79
2021/08/06 05:57:52;;;;;;;;;0.75;0.75;;;;;;;;5040203;28;46754;-79
2021/08/06 06:00:17;;;;;;;;;3.00;1.75;;;;;;;;5040530;28;46785;-79
2021/08/06 06:02:42;;;;;;;;;1.00;1.00;;;;;;;;5040210;28;46944;-79
2021/08/06 06:05:08;;;;;;;;;3.00;0.00;;;;;;;;5040318;28;46889;-79
2021/08/06 06:07:43;;;;;;;;;1.50;1.00;;;;;;;;5040317;28;46861;-79
2021/08/06 06:10:09;;;;;;;;;0.00;0.00;;;;;;;;5040066;28;47385;-79
2021/08/06 06:12:34;;;;;;;;;2.00;0.00;;;;;;;;5021898;28;48525;-79
2021/08/06 06:15:00;;;;;;;;;0.75;0.75;;;;;;;;5039815;28;46952;-79
2021/08/06 06:17:25;;;;;;;;;0.00;0.00;;;;;;;;5038721;28;46916;-79
2021/08/06 06:19:51;;;;;;;;;1.50;1.00;;;;;;;;5040283;28;47273;-79
2021/08/06 06:22:17;;;;;;;;;1.00;0.00;;;;;;;;5026528;28;47794;-80
2021/08/06 06:24:42;;;;;;;;;1.75;1.00;;;;;;;;5022031;28;46996;-79
2021/08/06 06:27:07;;;;;;;;;1.50;1.00;;;;;;;;5039965;28;46942;-79
2021/08/06 06:29:33;;;;;;;;;1.00;0.00;;;;;;;;5039735;28;47079;-79
2021/08/06 06:31:58;;;;;;;;;1.50;0.50;;;;;;;;5039603;28;47998;-80
2021/08/06 06:34:23;;;;;;;;;0.00;0.00;;;;;;;;5034849;28;46952;-79
2021/08/06 06:36:48;;;;;;;;;0.00;0.00;;;;;;;;5039991;28;46991;-79
2021/08/06 06:39:14;;;;;;;;;1.75;0.50;;;;;;;;5040152;28;47302;-80
2021/08/06 06:41:39;;;;;;;;;3.25;0.00;;;;;;;;5021642;28;48263;-80
2021/08/06 06:44:04;;;;;;;;;1.25;0.00;;;;;;;;5039551;28;46908;-79
2021/08/06 06:46:30;;;;;;;;;1.00;0.50;;;;;;;;5039581;28;47040;-80
2021/08/06 06:48:55;;;;;;;;;0.50;0.00;;;;;;;;5038546;28;47190;-80
2021/08/06 06:51:21;;;;;;;;;0.50;0.50;;;;;;;;5039455;28;47065;-80
2021/08/06 06:53:47;;;;;;;;;1.25;0.00;;;;;;;;5039621;28;47430;-80
2021/08/06 06:56:12;;;;;;;;;0.75;0.75;;;;;;;;5039587;28;46758;-80
2021/08/06 06:58:38;;;;;;;;;0.00;0.00;;;;;;;;5039607;28;46786;-80
2021/08/06 07:01:04;;;;;;;;;0.50;0.50;;;;;;;;5021188;28;47759;-79
2021/08/06 07:03:29;;;;;;;;;0.75;0.75;;;;;;;;5039344;28;46989;-79
2021/08/06 07:05:55;;;;;;;;;0.00;0.00;;;;;;;;5039376;28;46802;-79
2021/08/06 07:08:20;;;;;;;;;1.00;0.00;;;;;;;;5039599;28;46809;-79
2021/08/06 07:10:45;;;;;;;;;0.00;0.00;;;;;;;;5020978;28;49587;-79
2021/08/06 07:13:10;;;;;;;;;0.00;0.00;;;;;;;;5039106;28;46819;-79
2021/08/06 07:15:36;;;;;;;;;0.50;0.00;;;;;;;;5038868;28;46834;-79
2021/08/06 07:18:01;;;;;;;;;0.75;0.00;;;;;;;;5039632;28;46724;-78
2021/08/06 07:20:26;;;;;;;;;0.75;0.00;;;;;;;;5038066;28;47082;-79
2021/08/06 07:22:55;;;;;;;;;0.50;0.00;;;;;;;;5008400;28;47016;-79
2021/08/06 07:25:20;;;;;;;;;0.00;0.00;;;;;;;;5038861;28;46928;-79
2021/08/06 07:27:46;;;;;;;;;0.50;0.50;;;;;;;;5039177;28;47097;-79
2021/08/06 07:30:12;;;;;;;;;2.50;0.50;;;;;;;;5038437;28;47642;-80
2021/08/06 07:32:37;;;;;;;;;0.25;0.25;;;;;;;;5039008;28;46710;-79
2021/08/06 07:35:03;;;;;;;;;1.25;0.50;;;;;;;;5034632;28;46758;-79
2021/08/06 07:37:28;;;;;;;;;0.00;0.00;;;;;;;;5039463;28;47041;-79
2021/08/06 07:39:54;;;;;;;;;0.00;0.00;;;;;;;;5038574;28;46894;-79
2021/08/06 07:42:20;;;;;;;;;1.50;0.00;;;;;;;;5038696;28;46952;-79
2021/08/06 07:44:45;;;;;;;;;0.00;0.00;;;;;;;;5038598;28;46735;-79
2021/08/06 07:47:11;;;;;;;;;0.00;0.00;;;;;;;;5039116;28;47119;-80
2021/08/06 07:49:37;;;;;;;;;0.75;0.75;;;;;;;;5038672;28;47691;-79
2021/08/06 07:52:02;;;;;;;;;0.00;0.00;;;;;;;;5038818;28;47010;-79
2021/08/06 07:54:27;;;;;;;;;0.00;0.00;;;;;;;;5038664;28;47209;-79
2021/08/06 07:56:53;;;;;;;;;0.00;0.00;;;;;;;;5037298;28;46882;-79
2021/08/06 07:59:19;;;;;;;;;0.00;0.00;;;;;;;;5038119;28;47177;-79
2021/08/06 08:01:45;;;;;;;;;1.75;0.75;;;;;;;;5038607;28;47258;-79
2021/08/06 08:04:10;;;;;;;;;2.00;0.00;;;;;;;;5038443;28;46939;-79
2021/08/06 08:06:36;;;;;;;;;0.50;0.50;;;;;;;;5038742;28;47029;-79
2021/08/06 08:09:01;;;;;;;;;0.00;0.00;;;;;;;;5038335;28;47891;-79
2021/08/06 08:11:27;;;;;;;;;0.00;0.00;;;;;;;;5036814;28;46873;-78
2021/08/06 08:13:53;;;;;;;;;0.00;0.00;;;;;;;;5038278;28;46984;-79
2021/08/06 08:16:18;;;;;;;;;1.00;0.50;;;;;;;;5038255;28;47160;-79
2021/08/06 08:18:43;;;;;;;;;2.50;0.00;;;;;;;;5036836;28;48156;-79
2021/08/06 08:21:09;;;;;;;;;1.25;0.75;;;;;;;;5031759;28;46918;-79
2021/08/06 08:23:34;;;;;;;;;0.00;0.00;;;;;;;;5031718;28;46960;-79
2021/08/06 08:25:59;;;;;;;;;1.00;0.75;;;;;;;;5038406;28;47024;-79
2021/08/06 08:28:26;;;;;;;;;0.00;0.00;;;;;;;;5037989;28;47007;-79
2021/08/06 08:30:51;;;;;;;;;1.00;0.50;;;;;;;;5037964;28;46996;-81
2021/08/06 08:33:17;;;;;;;;;1.00;1.00;;;;;;;;5035423;28;47127;-80
2021/08/06 08:35:44;;;;;;;;;0.25;0.00;;;;;;;;5042062;28;47190;-80
2021/08/06 08:38:10;;;;;;;;;1.75;0.25;;;;;;;;5041470;28;47842;-80
2021/08/06 08:40:37;;;;;;;;;0.00;0.00;;;;;;;;5041669;28;47113;-80
2021/08/06 08:43:03;;;;;;;;;0.25;0.00;;;;;;;;5041361;28;46885;-80
2021/08/06 08:45:28;;;;;;;;;2.00;0.00;;;;;;;;5041621;28;46974;-80
2021/08/06 08:47:54;;;;;;;;;0.75;0.00;;;;;;;;5041368;28;46801;-79
2021/08/06 08:50:19;;;;;;;;;0.50;0.00;;;;;;;;5041583;28;46931;-80
2021/08/06 08:52:45;;;;;;;;;0.00;0.00;;;;;;;;5041518;28;46906;-80
2021/08/06 08:55:10;;;;;;;;;0.25;0.25;;;;;;;;5041853;28;46848;-80
2021/08/06 08:57:36;;;;;;;;;0.00;0.00;;;;;;;;5041027;28;46910;-81
2021/08/06 09:00:03;;;;;;;;;1.50;0.25;;;;;;;;5041269;28;46761;-80
2021/08/06 09:02:28;;;;;;;;;1.75;0.00;;;;;;;;5023315;28;47033;-80
2021/08/06 09:05:07;;;;;;;;;0.50;0.25;;;;;;;;5040136;28;46975;-80
2021/08/06 09:07:33;;;;;;;;;2.00;1.00;;;;;;;;5041066;28;47772;-80
2021/08/06 09:10:18;;;;;;;;;2.75;0.00;;;;;;;;5041273;28;46973;-80
2021/08/06 09:12:49;;;;;;;;;0.00;0.00;;;;;;;;5022938;28;47142;-80
2021/08/06 09:15:15;;;;;;;;;2.25;0.25;;;;;;;;5041081;28;47667;-80
2021/08/06 09:17:40;;;;;;;;;0.00;0.00;;;;;;;;5041000;28;46894;-80
2021/08/06 09:20:10;;;;;;;;;1.00;1.00;;;;;;;;5023003;28;46956;-79
2021/08/06 09:22:35;;;;;;;;;0.00;0.00;;;;;;;;5027734;28;46881;-80
2021/08/06 09:25:03;;;;;;;;;0.75;0.00;;;;;;;;5041248;28;46881;-80
2021/08/06 09:27:30;;;;;;;;;2.00;0.00;;;;;;;;5040627;28;47700;-80
2021/08/06 09:29:59;;;;;;;;;0.25;0.25;;;;;;;;5040635;28;46955;-80
2021/08/06 09:32:25;;;;;;;;;2.00;0.00;;;;;;;;5040859;28;46799;-80
2021/08/06 09:34:50;;;;;;;;;0.00;0.00;;;;;;;;5018305;28;47257;-80
2021/08/06 09:37:18;;;;;;;;;0.00;0.00;;;;;;;;5040780;28;47721;-80
2021/08/06 09:39:47;;;;;;;;;0.25;0.00;;;;;;;;5040973;28;47227;-79
2021/08/06 09:42:15;;;;;;;;;0.50;0.00;;;;;;;;5040741;28;46819;-79
2021/08/06 09:44:40;;;;;;;;;0.75;0.75;;;;;;;;5039984;28;46876;-80
2021/08/06 09:47:19;;;;;;;;;0.75;0.00;;;;;;;;5040577;28;46940;-80
2021/08/06 09:49:49;;;;;;;;;0.00;0.00;;;;;;;;5040520;28;47116;-79
2021/08/06 09:52:14;;;;;;;;;1.00;1.00;;;;;;;;5040601;28;46835;-80
2021/08/06 09:54:40;;;;;;;;;1.00;0.00;;;;;;;;5040735;28;47034;-79
2021/08/06 09:57:06;;;;;;;;;0.00;0.00;;;;;;;;5040483;28;48026;-80
2021/08/06 09:59:33;;;;;;;;;0.00;0.00;;;;;;;;5040169;28;47175;-79
2021/08/06 10:02:12;;;;;;;;;2.00;1.00;;;;;;;;5022528;28;47059;-79
2021/08/06 10:04:37;;;;;;;;;0.75;0.75;;;;;;;;5022405;28;47371;-80
2021/08/06 10:07:03;;;;;;;;;2.25;0.00;;;;;;;;5040312;28;47433;-79
2021/08/06 10:09:28;;;;;;;;;0.50;0.25;;;;;;;;5040110;28;46936;-79
2021/08/06 10:11:54;;;;;;;;;0.50;0.50;;;;;;;;5040246;28;47687;-80
2021/08/06 10:14:19;;;;;;;;;0.00;0.00;;;;;;;;5039917;28;47164;-80
2021/08/06 10:16:45;;;;;;;;;0.50;0.00;;;;;;;;5040208;28;46836;-79
2021/08/06 10:19:10;;;;;;;;;0.75;0.00;;;;;;;;5040007;28;46879;-79
2021/08/06 10:21:36;;;;;;;;;0.00;0.00;;;;;;;;5029762;28;47155;-79
2021/08/06 10:24:01;;;;;;;;;1.25;1.00;;;;;;;;5037096;28;46971;-80
2021/08/06 10:26:27;;;;;;;;;0.00;0.00;;;;;;;;5039978;28;47142;-79
2021/08/06 10:28:53;;;;;;;;;0.50;0.25;;;;;;;;5021733;28;46989;-79
2021/08/06 10:31:19;;;;;;;;;1.00;1.00;;;;;;;;5021812;28;47016;-80
2021/08/06 10:34:02;;;;;;;;;0.00;0.00;;;;;;;;5034870;28;47054;-79
2021/08/06 10:36:41;;;;;;;;;1.00;1.00;;;;;;;;5038452;28;48702;-79
2021/08/06 10:39:27;;;;;;;;;2.75;1.00;;;;;;;;5021949;28;46962;-80
2021/08/06 10:41:53;;;;;;;;;1.00;0.00;;;;;;;;5025491;28;46755;-80
2021/08/06 10:44:18;;;;;;;;;1.00;0.00;;;;;;;;5039687;28;46806;-80
2021/08/06 10:47:06;;;;;;;;;1.50;1.00;;;;;;;;5039481;28;46967;-80
2021/08/06 10:49:32;;;;;;;;;0.25;0.25;;;;;;;;5039817;28;46963;-80
2021/08/06 10:52:14;;;;;;;;;0.00;0.00;;;;;;;;5039472;28;46965;-81
2021/08/06 10:54:40;;;;;;;;;1.00;1.00;;;;;;;;5039568;28;47079;-79
2021/08/06 10:57:13;;;;;;;;;3.00;0.00;;;;;;;;5039512;28;47929;-79
2021/08/06 10:59:39;;;;;;;;;0.00;0.00;;;;;;;;5037640;28;46824;-79
2021/08/06 11:02:04;;;;;;;;;0.00;0.00;;;;;;;;5039614;28;46792;-79
2021/08/06 11:04:29;;;;;;;;;1.00;0.50;;;;;;;;5039431;28;47053;-79
2021/08/06 11:06:55;;;;;;;;;0.00;0.00;;;;;;;;5039385;28;46783;-79
2021/08/06 11:09:26;;;;;;;;;2.00;0.00;;;;;;;;5039138;28;47378;-79
2021/08/06 11:11:58;;;;;;;;;3.00;1.00;;;;;;;;5039299;28;46971;-80
2021/08/06 11:14:30;;;;;;;;;0.75;0.25;;;;;;;;5037624;28;47065;-80
2021/08/06 11:16:58;;;;;;;;;0.25;0.25;;;;;;;;5039225;28;47090;-80
2021/08/06 11:19:27;;;;;;;;;0.75;0.75;;;;;;;;5038982;28;46975;-80
2021/08/06 11:21:53;;;;;;;;;2.00;0.00;;;;;;;;5026392;28;46732;-78
2021/08/06 11:24:18;;;;;;;;;0.50;0.25;;;;;;;;5039055;28;47333;-79
2021/08/06 11:26:48;;;;;;;;;1.00;1.00;;;;;;;;5039024;28;46868;-79
2021/08/06 11:29:15;;;;;;;;;2.50;0.25;;;;;;;;5038594;28;46830;-79
2021/08/06 11:31:40;;;;;;;;;1.50;1.00;;;;;;;;5039191;28;47047;-79
2021/08/06 11:34:06;;;;;;;;;0.25;0.25;;;;;;;;5042161;28;47848;-79
2021/08/06 11:36:34;;;;;;;;;0.00;0.00;;;;;;;;5038794;28;46952;-80
2021/08/06 11:39:08;;;;;;;;;0.00;0.00;;;;;;;;5038974;28;47069;-79
2021/08/06 11:41:33;;;;;;;;;0.00;0.00;;;;;;;;5020822;28;46779;-79
2021/08/06 11:43:59;;;;;;;;;0.50;0.50;;;;;;;;5039016;28;46785;-80
2021/08/06 11:46:24;;;;;;;;;0.00;0.00;;;;;;;;5038324;28;47834;-80
2021/08/06 11:48:51;;;;;;;;;0.25;0.00;;;;;;;;5038989;28;46918;-80
2021/08/06 11:51:16;;;;;;;;;0.00;0.00;;;;;;;;5020681;28;46956;-79
2021/08/06 11:53:42;;;;;;;;;1.00;1.00;;;;;;;;5020791;28;47076;-80
2021/08/06 11:56:12;;;;;;;;;1.00;1.00;;;;;;;;5038280;28;47515;-79
2021/08/06 11:58:38;;;;;;;;;3.75;0.00;;;;;;;;5020423;28;47016;-79
2021/08/06 12:01:05;;;;;;;;;0.00;0.00;;;;;;;;5038237;28;46844;-81
2021/08/06 12:03:30;;;;;;;;;0.00;0.00;;;;;;;;5038917;28;47033;-80
2021/08/06 12:06:00;;;;;;;;;0.00;0.00;;;;;;;;5038320;28;47947;-80
2021/08/06 12:08:30;;;;;;;;;0.00;0.00;;;;;;;;5020099;28;47518;-80
2021/08/06 12:11:08;;;;;;;;;0.00;0.00;;;;;;;;5038257;28;47043;-80
2021/08/06 12:13:35;;;;;;;;;1.00;1.00;;;;;;;;5038545;28;47349;-80
2021/08/06 12:16:09;;;;;;;;;2.50;0.00;;;;;;;;5038049;28;48077;-81
2021/08/06 12:18:35;;;;;;;;;1.00;1.00;;;;;;;;5038424;28;47171;-80
2021/08/06 12:21:04;;;;;;;;;0.00;0.00;;;;;;;;5038147;28;46889;-80
2021/08/06 12:23:29;;;;;;;;;1.00;1.00;;;;;;;;5038329;28;47058;-81
2021/08/06 12:26:01;;;;;;;;;0.00;0.00;;;;;;;;5037892;28;47752;-80
2021/08/06 12:28:27;;;;;;;;;2.00;0.25;;;;;;;;5038170;28;46926;-81
2021/08/06 12:31:05;;;;;;;;;0.00;0.00;;;;;;;;5038050;28;46936;-79
2021/08/06 12:33:30;;;;;;;;;1.00;1.00;;;;;;;;5033454;28;47028;-79
2021/08/06 12:36:07;;;;;;;;;0.00;0.00;;;;;;;;5038104;28;47598;-79
2021/08/06 12:38:32;;;;;;;;;0.00;0.00;;;;;;;;5038004;28;47032;-79
2021/08/06 12:41:00;;;;;;;;;1.00;1.00;;;;;;;;5036696;28;47103;-80
2021/08/06 12:43:25;;;;;;;;;0.00;0.00;;;;;;;;5037934;28;46978;-79
2021/08/06 12:46:09;;;;;;;;;0.00;0.00;;;;;;;;5037708;28;47143;-80
2021/08/06 12:48:34;;;;;;;;;0.00;0.00;;;;;;;;5036405;28;47078;-79
2021/08/06 12:51:16;;;;;;;;;0.75;0.75;;;;;;;;5020121;28;47338;-80
2021/08/06 12:53:41;;;;;;;;;0.00;0.00;;;;;;;;5038259;28;46810;-80
2021/08/06 12:56:07;;;;;;;;;0.00;0.00;;;;;;;;5037588;28;47733;-81
2021/08/06 12:58:32;;;;;;;;;0.00;0.00;;;;;;;;5037878;28;47031;-80
2021/08/06 13:01:00;;;;;;;;;0.00;0.00;;;;;;;;5019454;28;46937;-80
2021/08/06 13:03:29;;;;;;;;;1.25;0.00;;;;;;;;5038020;28;46996;-79
2021/08/06 13:05:59;;;;;;;;;0.00;0.00;;;;;;;;5037600;28;47249;-79
2021/08/06 13:08:24;;;;;;;;;0.00;0.00;;;;;;;;5037815;28;47102;-80
2021/08/06 13:11:06;;;;;;;;;0.00;0.00;;;;;;;;5037451;28;47127;-79
2021/08/06 13:13:31;;;;;;;;;0.00;0.00;;;;;;;;5037747;28;46825;-79
2021/08/06 13:15:56;;;;;;;;;2.50;0.00;;;;;;;;5037326;28;47886;-79
2021/08/06 13:18:22;;;;;;;;;0.75;0.00;;;;;;;;5037578;28;46916;-80
2021/08/06 13:20:47;;;;;;;;;0.75;0.00;;;;;;;;5036086;28;47135;-79
2021/08/06 13:23:13;;;;;;;;;3.00;0.50;;;;;;;;5032104;28;47274;-78
2021/08/06 13:25:39;;;;;;;;;0.00;0.00;;;;;;;;5040708;28;47168;-80
2021/08/06 13:28:08;;;;;;;;;1.00;1.00;;;;;;;;5040882;28;47152;-79
2021/08/06 13:30:33;;;;;;;;;2.00;0.75;;;;;;;;5040414;28;46895;-79
2021/08/06 13:32:58;;;;;;;;;0.00;0.00;;;;;;;;5038892;28;46814;-79
2021/08/06 13:35:25;;;;;;;;;0.00;0.00;;;;;;;;5038110;28;47710;-79
2021/08/06 13:37:51;;;;;;;;;1.00;0.00;;;;;;;;5040829;28;46786;-79
2021/08/06 13:40:18;;;;;;;;;1.00;0.00;;;;;;;;5040681;28;47354;-78
2021/08/06 13:42:43;;;;;;;;;1.50;0.00;;;;;;;;5040736;28;46883;-78
2021/08/06 13:45:08;;;;;;;;;0.00;0.00;;;;;;;;5040124;28;47128;-78
2021/08/06 13:47:34;;;;;;;;;0.00;0.00;;;;;;;;5039156;28;47356;-79
2021/08/06 13:49:59;;;;;;;;;0.00;0.00;;;;;;;;5040521;28;46988;-80
2021/08/06 13:52:24;;;;;;;;;0.00;0.00;;;;;;;;5040956;28;46896;-79
2021/08/06 13:54:50;;;;;;;;;0.00;0.00;;;;;;;;5040362;28;47095;-78
2021/08/06 13:57:15;;;;;;;;;0.00;0.00;;;;;;;;5040334;28;47026;-79
2021/08/06 13:59:40;;;;;;;;;1.00;0.00;;;;;;;;5040189;28;46974;-80
2021/08/06 14:02:06;;;;;;;;;0.75;0.00;;;;;;;;5040670;28;47098;-80
2021/08/06 14:04:31;;;;;;;;;0.00;0.00;;;;;;;;5040249;28;47964;-78
2021/08/06 14:06:58;;;;;;;;;0.00;0.00;;;;;;;;5040280;28;46928;-78
2021/08/06 14:09:24;;;;;;;;;0.00;0.00;;;;;;;;5040357;28;46747;-79
2021/08/06 14:11:50;;;;;;;;;0.00;0.00;;;;;;;;5040464;28;47288;-79
2021/08/06 14:14:15;;;;;;;;;0.25;0.00;;;;;;;;5039650;28;47071;-79
2021/08/06 14:16:41;;;;;;;;;0.00;0.00;;;;;;;;5040444;28;46952;-79
2021/08/06 14:19:06;;;;;;;;;0.00;0.00;;;;;;;;5040131;28;46802;-79
2021/08/06 14:21:31;;;;;;;;;0.00;0.00;;;;;;;;5030552;28;46815;-79
2021/08/06 14:23:56;;;;;;;;;0.00;0.00;;;;;;;;5036407;28;47827;-79
2021/08/06 14:26:22;;;;;;;;;2.00;0.50;;;;;;;;5040061;28;47047;-79
2021/08/06 14:28:48;;;;;;;;;1.00;0.00;;;;;;;;5039704;28;47091;-78
2021/08/06 14:31:13;;;;;;;;;0.00;0.00;;;;;;;;5039534;28;46971;-78
2021/08/06 14:33:39;;;;;;;;;0.00;0.00;;;;;;;;5016738;28;47637;-80
2021/08/06 14:36:06;;;;;;;;;0.75;0.00;;;;;;;;5040197;28;47144;-79